Portada
METAR-TAF:

METAR-TAF

Aeropuertos :

Aeropuerto Civil de Amán

Amán, Jordania

latitud: 31-59N, longitud: 035-59E, altitud: 767 m

Observación

El informe se hizo hace 1 hora y 5 minutos, a las 08:00 UTC
Viento calma
Temperatura 32°C
Humedad 18%
Presión 1016 hPa
Visibilidad: 5000 m
calima

METAR: OJAM 060800Z 00000KT 5000 HZ NSC 32/05 Q1016 NOSIG

Hora: 12:05 (09:05 UTC)

Pronóstico

El informe se hizo hace 5 horas y 0 minutos, a las 04:05 UTC
Pronóstico válido del 06 a las 06 UTC al 07 a las 12 UTC
Viento 8 kt del noroeste
Visibilidad: 5000 m
calima

TAF: OJAM 060405Z 0606/0712 31008KT 5000 HZ NSC

Observaciones y pronósticos meteorológicos de más de 4000 aeropuertos (mensajes METAR y TAF).

Los puntos amarillos y rojos representan las estaciones disponibles.

Ponga el ratón en el punto deseado para ver el nombre de la estación.

Haga clic para ver las observaciones y los pronósticos meteorológicos.

Para cambiar el mapa : haga clic en los botones verdes con una cruz de color negro para hacer un zoom, en el botón verde con un guión para alejar o en las flechas verdes para mapas adyacentes.


METAR-TAF: